sensor_id;sensor_type;location;lat;lon;timestamp;temperature;humidity
14236;DHT22;7202;50.718;7.072;2023-03-23T00:01:49;13.20;99.90
14236;DHT22;7202;50.718;7.072;2023-03-23T00:04:16;13.20;99.90
14236;DHT22;7202;50.718;7.072;2023-03-23T00:06:44;13.20;99.90
14236;DHT22;7202;50.718;7.072;2023-03-23T00:09:13;13.20;99.90
14236;DHT22;7202;50.718;7.072;2023-03-23T00:11:42;13.20;99.90
14236;DHT22;7202;50.718;7.072;2023-03-23T00:14:11;13.30;99.90
14236;DHT22;7202;50.718;7.072;2023-03-23T00:16:40;13.30;99.90
14236;DHT22;7202;50.718;7.072;2023-03-23T00:19:10;13.30;99.90
14236;DHT22;7202;50.718;7.072;2023-03-23T00:21:40;13.30;99.90
14236;DHT22;7202;50.718;7.072;2023-03-23T00:24:11;13.30;99.90
14236;DHT22;7202;50.718;7.072;2023-03-23T00:26:40;13.30;99.90
14236;DHT22;7202;50.718;7.072;2023-03-23T00:29:13;13.30;99.90
14236;DHT22;7202;50.718;7.072;2023-03-23T00:31:41;13.30;99.90
14236;DHT22;7202;50.718;7.072;2023-03-23T00:34:15;13.20;99.90
14236;DHT22;7202;50.718;7.072;2023-03-23T00:36:45;13.30;99.90
14236;DHT22;7202;50.718;7.072;2023-03-23T00:39:13;13.20;99.90
14236;DHT22;7202;50.718;7.072;2023-03-23T00:41:42;13.20;99.90
14236;DHT22;7202;50.718;7.072;2023-03-23T00:44:12;13.20;99.90
14236;DHT22;7202;50.718;7.072;2023-03-23T00:46:43;13.20;99.90
14236;DHT22;7202;50.718;7.072;2023-03-23T00:49:12;13.10;99.90
14236;DHT22;7202;50.718;7.072;2023-03-23T00:51:40;13.20;99.90
14236;DHT22;7202;50.718;7.072;2023-03-23T00:54:11;13.20;99.90
14236;DHT22;7202;50.718;7.072;2023-03-23T00:56:39;13.20;99.90
14236;DHT22;7202;50.718;7.072;2023-03-23T00:59:07;13.20;99.90
14236;DHT22;7202;50.718;7.072;2023-03-23T01:01:36;13.20;99.90
14236;DHT22;7202;50.718;7.072;2023-03-23T01:04:04;13.20;99.90
14236;DHT22;7202;50.718;7.072;2023-03-23T01:06:33;13.20;99.90
14236;DHT22;7202;50.718;7.072;2023-03-23T01:09:02;13.20;99.90
14236;DHT22;7202;50.718;7.072;2023-03-23T01:11:30;13.20;99.90
14236;DHT22;7202;50.718;7.072;2023-03-23T01:13:58;13.20;99.90
14236;DHT22;7202;50.718;7.072;2023-03-23T01:16:26;13.20;99.90
14236;DHT22;7202;50.718;7.072;2023-03-23T01:18:55;13.20;99.90
14236;DHT22;7202;50.718;7.072;2023-03-23T01:21:23;13.20;99.90
14236;DHT22;7202;50.718;7.072;2023-03-23T01:23:52;13.20;99.90
14236;DHT22;7202;50.718;7.072;2023-03-23T01:26:22;13.20;99.90
14236;DHT22;7202;50.718;7.072;2023-03-23T01:28:49;13.20;99.90
14236;DHT22;7202;50.718;7.072;2023-03-23T01:31:19;13.20;99.90
14236;DHT22;7202;50.718;7.072;2023-03-23T01:33:47;13.20;99.90
14236;DHT22;7202;50.718;7.072;2023-03-23T01:36:21;13.20;99.90
14236;DHT22;7202;50.718;7.072;2023-03-23T01:38:49;13.10;99.90
14236;DHT22;7202;50.718;7.072;2023-03-23T01:41:18;13.10;99.90
14236;DHT22;7202;50.718;7.072;2023-03-23T01:44:00;13.10;99.90
14236;DHT22;7202;50.718;7.072;2023-03-23T01:46:33;13.10;99.90
14236;DHT22;7202;50.718;7.072;2023-03-23T01:49:05;13.10;99.90
14236;DHT22;7202;50.718;7.072;2023-03-23T01:51:40;13.10;99.90
14236;DHT22;7202;50.718;7.072;2023-03-23T01:54:11;13.10;99.90
14236;DHT22;7202;50.718;7.072;2023-03-23T01:56:43;13.10;99.90
14236;DHT22;7202;50.718;7.072;2023-03-23T01:59:12;13.00;99.90
14236;DHT22;7202;50.718;7.072;2023-03-23T02:01:46;13.00;99.90
14236;DHT22;7202;50.718;7.072;2023-03-23T02:04:14;13.10;99.90
14236;DHT22;7202;50.718;7.072;2023-03-23T02:06:45;13.10;99.90
14236;DHT22;7202;50.718;7.072;2023-03-23T02:09:18;13.00;99.90
14236;DHT22;7202;50.718;7.072;2023-03-23T02:11:48;13.00;99.90
14236;DHT22;7202;50.718;7.072;2023-03-23T02:14:17;13.00;99.90
14236;DHT22;7202;50.718;7.072;2023-03-23T02:16:51;13.00;99.90
14236;DHT22;7202;50.718;7.072;2023-03-23T02:19:40;13.00;99.90
14236;DHT22;7202;50.718;7.072;2023-03-23T02:22:28;13.00;99.90
14236;DHT22;7202;50.718;7.072;2023-03-23T02:25:14;13.00;99.90
14236;DHT22;7202;50.718;7.072;2023-03-23T02:30:46;12.90;99.90
14236;DHT22;7202;50.718;7.072;2023-03-23T02:33:42;12.90;99.90
14236;DHT22;7202;50.718;7.072;2023-03-23T02:36:18;12.80;99.90
14236;DHT22;7202;50.718;7.072;2023-03-23T02:38:54;12.70;99.90
14236;DHT22;7202;50.718;7.072;2023-03-23T02:41:27;12.70;99.90
14236;DHT22;7202;50.718;7.072;2023-03-23T02:43:57;12.60;99.90
14236;DHT22;7202;50.718;7.072;2023-03-23T02:46:26;12.60;99.90
14236;DHT22;7202;50.718;7.072;2023-03-23T02:48:57;12.60;99.90
14236;DHT22;7202;50.718;7.072;2023-03-23T02:51:27;12.70;99.90
14236;DHT22;7202;50.718;7.072;2023-03-23T02:53:56;12.60;99.90
14236;DHT22;7202;50.718;7.072;2023-03-23T02:56:26;12.60;99.90
14236;DHT22;7202;50.718;7.072;2023-03-23T02:58:55;12.50;99.90
14236;DHT22;7202;50.718;7.072;2023-03-23T03:01:48;12.50;99.90
14236;DHT22;7202;50.718;7.072;2023-03-23T03:04:20;12.50;99.90
14236;DHT22;7202;50.718;7.072;2023-03-23T03:06:59;12.40;99.90
14236;DHT22;7202;50.718;7.072;2023-03-23T03:09:35;12.30;99.90
14236;DHT22;7202;50.718;7.072;2023-03-23T03:12:07;12.20;99.90
14236;DHT22;7202;50.718;7.072;2023-03-23T03:14:41;12.20;99.90
14236;DHT22;7202;50.718;7.072;2023-03-23T03:17:14;12.20;99.90
14236;DHT22;7202;50.718;7.072;2023-03-23T03:19:48;12.20;99.90
14236;DHT22;7202;50.718;7.072;2023-03-23T03:22:18;12.10;99.90
14236;DHT22;7202;50.718;7.072;2023-03-23T03:24:49;12.10;99.90
14236;DHT22;7202;50.718;7.072;2023-03-23T03:27:20;12.10;99.90
14236;DHT22;7202;50.718;7.072;2023-03-23T03:30:06;12.10;99.90
14236;DHT22;7202;50.718;7.072;2023-03-23T03:32:39;12.10;99.90
14236;DHT22;7202;50.718;7.072;2023-03-23T03:35:10;12.00;99.90
14236;DHT22;7202;50.718;7.072;2023-03-23T03:37:39;12.00;99.90
14236;DHT22;7202;50.718;7.072;2023-03-23T03:40:10;12.10;99.90
14236;DHT22;7202;50.718;7.072;2023-03-23T03:42:41;12.00;99.90
14236;DHT22;7202;50.718;7.072;2023-03-23T03:45:13;12.00;99.90
14236;DHT22;7202;50.718;7.072;2023-03-23T03:47:41;12.00;99.90
14236;DHT22;7202;50.718;7.072;2023-03-23T03:50:10;11.90;99.90
14236;DHT22;7202;50.718;7.072;2023-03-23T03:52:38;11.90;99.90
14236;DHT22;7202;50.718;7.072;2023-03-23T03:55:08;11.90;99.90
14236;DHT22;7202;50.718;7.072;2023-03-23T03:57:38;11.90;99.90
14236;DHT22;7202;50.718;7.072;2023-03-23T04:00:14;11.90;99.90
14236;DHT22;7202;50.718;7.072;2023-03-23T04:02:46;11.90;99.90
14236;DHT22;7202;50.718;7.072;2023-03-23T04:05:22;11.90;99.90
14236;DHT22;7202;50.718;7.072;2023-03-23T04:07:50;11.90;99.90
14236;DHT22;7202;50.718;7.072;2023-03-23T04:10:20;11.90;99.90
14236;DHT22;7202;50.718;7.072;2023-03-23T04:12:53;11.90;99.90
14236;DHT22;7202;50.718;7.072;2023-03-23T04:15:53;11.90;99.90
14236;DHT22;7202;50.718;7.072;2023-03-23T04:18:21;11.80;99.90
14236;DHT22;7202;50.718;7.072;2023-03-23T04:20:52;11.80;99.90
14236;DHT22;7202;50.718;7.072;2023-03-23T04:23:21;11.80;99.90
14236;DHT22;7202;50.718;7.072;2023-03-23T04:25:51;11.90;99.90
14236;DHT22;7202;50.718;7.072;2023-03-23T04:28:19;11.90;99.90
14236;DHT22;7202;50.718;7.072;2023-03-23T04:31:12;11.80;99.90
14236;DHT22;7202;50.718;7.072;2023-03-23T04:33:45;11.80;99.90
14236;DHT22;7202;50.718;7.072;2023-03-23T04:36:15;11.80;99.90
14236;DHT22;7202;50.718;7.072;2023-03-23T04:38:53;11.80;99.90
14236;DHT22;7202;50.718;7.072;2023-03-23T04:41:23;11.70;99.90
14236;DHT22;7202;50.718;7.072;2023-03-23T04:44:11;11.70;99.90
14236;DHT22;7202;50.718;7.072;2023-03-23T04:46:49;11.70;99.90
14236;DHT22;7202;50.718;7.072;2023-03-23T04:49:19;11.70;99.90
14236;DHT22;7202;50.718;7.072;2023-03-23T04:51:53;11.70;99.90
14236;DHT22;7202;50.718;7.072;2023-03-23T04:54:32;11.70;99.90
14236;DHT22;7202;50.718;7.072;2023-03-23T04:57:01;11.70;99.90
14236;DHT22;7202;50.718;7.072;2023-03-23T04:59:30;11.70;99.90
14236;DHT22;7202;50.718;7.072;2023-03-23T05:02:05;11.70;99.90
14236;DHT22;7202;50.718;7.072;2023-03-23T05:04:33;11.70;99.90
14236;DHT22;7202;50.718;7.072;2023-03-23T05:07:11;11.70;99.90
14236;DHT22;7202;50.718;7.072;2023-03-23T05:09:47;11.60;99.90
14236;DHT22;7202;50.718;7.072;2023-03-23T05:12:16;11.60;99.90
14236;DHT22;7202;50.718;7.072;2023-03-23T05:14:57;11.60;99.90
14236;DHT22;7202;50.718;7.072;2023-03-23T05:17:27;11.60;99.90
14236;DHT22;7202;50.718;7.072;2023-03-23T05:19:59;11.60;99.90
14236;DHT22;7202;50.718;7.072;2023-03-23T05:22:41;11.60;99.90
14236;DHT22;7202;50.718;7.072;2023-03-23T05:25:11;11.60;99.90
14236;DHT22;7202;50.718;7.072;2023-03-23T05:27:43;11.60;99.90
14236;DHT22;7202;50.718;7.072;2023-03-23T05:30:27;11.50;99.90
14236;DHT22;7202;50.718;7.072;2023-03-23T05:32:57;11.50;99.90
14236;DHT22;7202;50.718;7.072;2023-03-23T05:36:01;11.50;99.90
14236;DHT22;7202;50.718;7.072;2023-03-23T05:38:39;11.50;99.90
14236;DHT22;7202;50.718;7.072;2023-03-23T05:41:10;11.50;99.90
14236;DHT22;7202;50.718;7.072;2023-03-23T05:43:41;11.50;99.90
14236;DHT22;7202;50.718;7.072;2023-03-23T05:46:11;11.50;99.90
14236;DHT22;7202;50.718;7.072;2023-03-23T05:48:40;11.50;99.90
14236;DHT22;7202;50.718;7.072;2023-03-23T05:51:13;11.50;99.90
14236;DHT22;7202;50.718;7.072;2023-03-23T05:53:44;11.50;99.90
14236;DHT22;7202;50.718;7.072;2023-03-23T05:56:15;11.60;99.90
14236;DHT22;7202;50.718;7.072;2023-03-23T05:58:54;11.60;99.90
14236;DHT22;7202;50.718;7.072;2023-03-23T06:01:22;11.70;99.90
14236;DHT22;7202;50.718;7.072;2023-03-23T06:03:50;11.80;99.90
14236;DHT22;7202;50.718;7.072;2023-03-23T06:06:26;11.70;99.90
14236;DHT22;7202;50.718;7.072;2023-03-23T06:09:07;11.80;99.90
14236;DHT22;7202;50.718;7.072;2023-03-23T06:11:45;11.80;99.90
14236;DHT22;7202;50.718;7.072;2023-03-23T06:14:31;11.80;99.90
14236;DHT22;7202;50.718;7.072;2023-03-23T06:17:00;11.80;99.90
14236;DHT22;7202;50.718;7.072;2023-03-23T06:19:28;11.80;99.90
14236;DHT22;7202;50.718;7.072;2023-03-23T06:22:06;11.80;99.90
14236;DHT22;7202;50.718;7.072;2023-03-23T06:24:44;11.90;99.90
14236;DHT22;7202;50.718;7.072;2023-03-23T06:27:16;11.90;99.90
14236;DHT22;7202;50.718;7.072;2023-03-23T06:29:45;11.90;99.90
14236;DHT22;7202;50.718;7.072;2023-03-23T06:32:13;12.00;99.90
14236;DHT22;7202;50.718;7.072;2023-03-23T06:34:42;12.00;99.90
14236;DHT22;7202;50.718;7.072;2023-03-23T06:37:35;12.00;99.90
14236;DHT22;7202;50.718;7.072;2023-03-23T06:40:27;12.10;99.90
14236;DHT22;7202;50.718;7.072;2023-03-23T06:42:57;12.10;99.90
14236;DHT22;7202;50.718;7.072;2023-03-23T06:45:25;12.10;99.90
14236;DHT22;7202;50.718;7.072;2023-03-23T06:48:08;12.20;99.90
14236;DHT22;7202;50.718;7.072;2023-03-23T06:50:36;12.20;99.90
14236;DHT22;7202;50.718;7.072;2023-03-23T06:53:04;12.30;99.90
14236;DHT22;7202;50.718;7.072;2023-03-23T06:55:33;12.30;99.90
14236;DHT22;7202;50.718;7.072;2023-03-23T06:58:03;12.40;99.90
14236;DHT22;7202;50.718;7.072;2023-03-23T07:00:32;12.40;99.90
14236;DHT22;7202;50.718;7.072;2023-03-23T07:03:00;12.40;99.90
14236;DHT22;7202;50.718;7.072;2023-03-23T07:05:27;12.50;99.90
14236;DHT22;7202;50.718;7.072;2023-03-23T07:07:56;12.50;99.90
14236;DHT22;7202;50.718;7.072;2023-03-23T07:10:34;12.60;99.90
14236;DHT22;7202;50.718;7.072;2023-03-23T07:13:04;12.60;99.90
14236;DHT22;7202;50.718;7.072;2023-03-23T07:15:42;12.70;99.90
14236;DHT22;7202;50.718;7.072;2023-03-23T07:18:10;12.70;99.90
14236;DHT22;7202;50.718;7.072;2023-03-23T07:20:47;12.80;99.90
14236;DHT22;7202;50.718;7.072;2023-03-23T07:23:15;12.80;99.90
14236;DHT22;7202;50.718;7.072;2023-03-23T07:26:05;12.90;99.90
14236;DHT22;7202;50.718;7.072;2023-03-23T07:28:39;12.90;99.90
14236;DHT22;7202;50.718;7.072;2023-03-23T07:31:45;13.00;99.90
14236;DHT22;7202;50.718;7.072;2023-03-23T07:34:14;13.10;99.90
14236;DHT22;7202;50.718;7.072;2023-03-23T07:37:02;13.20;99.90
14236;DHT22;7202;50.718;7.072;2023-03-23T07:39:31;13.30;99.90
14236;DHT22;7202;50.718;7.072;2023-03-23T07:42:02;13.30;99.90
14236;DHT22;7202;50.718;7.072;2023-03-23T07:44:40;13.40;99.90
14236;DHT22;7202;50.718;7.072;2023-03-23T07:47:11;13.40;99.90
14236;DHT22;7202;50.718;7.072;2023-03-23T07:49:38;13.50;99.90
14236;DHT22;7202;50.718;7.072;2023-03-23T07:52:18;13.50;99.90
14236;DHT22;7202;50.718;7.072;2023-03-23T07:54:46;13.60;99.90
14236;DHT22;7202;50.718;7.072;2023-03-23T07:57:24;13.70;99.90
14236;DHT22;7202;50.718;7.072;2023-03-23T07:59:53;13.80;99.90
14236;DHT22;7202;50.718;7.072;2023-03-23T08:02:21;13.80;99.90
14236;DHT22;7202;50.718;7.072;2023-03-23T08:04:55;13.80;99.90
14236;DHT22;7202;50.718;7.072;2023-03-23T08:07:58;13.80;99.90
14236;DHT22;7202;50.718;7.072;2023-03-23T08:10:46;13.90;99.90
14236;DHT22;7202;50.718;7.072;2023-03-23T08:13:27;13.90;99.90
14236;DHT22;7202;50.718;7.072;2023-03-23T08:16:13;13.90;99.90
14236;DHT22;7202;50.718;7.072;2023-03-23T08:19:00;13.90;99.90
14236;DHT22;7202;50.718;7.072;2023-03-23T08:21:47;14.00;99.90
14236;DHT22;7202;50.718;7.072;2023-03-23T08:24:18;14.10;99.90
14236;DHT22;7202;50.718;7.072;2023-03-23T08:26:54;14.10;99.90
14236;DHT22;7202;50.718;7.072;2023-03-23T08:29:47;14.10;99.90
14236;DHT22;7202;50.718;7.072;2023-03-23T08:32:24;14.20;99.90
14236;DHT22;7202;50.718;7.072;2023-03-23T08:35:03;14.20;99.90
14236;DHT22;7202;50.718;7.072;2023-03-23T08:37:54;14.10;99.90
14236;DHT22;7202;50.718;7.072;2023-03-23T08:40:44;14.20;99.90
14236;DHT22;7202;50.718;7.072;2023-03-23T08:43:34;14.20;99.90
14236;DHT22;7202;50.718;7.072;2023-03-23T08:46:24;14.20;99.90
14236;DHT22;7202;50.718;7.072;2023-03-23T08:49:09;14.20;99.90
14236;DHT22;7202;50.718;7.072;2023-03-23T08:51:55;14.20;99.90
14236;DHT22;7202;50.718;7.072;2023-03-23T08:54:43;14.30;99.90
14236;DHT22;7202;50.718;7.072;2023-03-23T08:57:35;14.40;99.90
14236;DHT22;7202;50.718;7.072;2023-03-23T09:00:32;14.50;99.90
14236;DHT22;7202;50.718;7.072;2023-03-23T09:03:02;14.50;99.90
14236;DHT22;7202;50.718;7.072;2023-03-23T09:05:40;14.50;99.90
14236;DHT22;7202;50.718;7.072;2023-03-23T09:08:38;14.60;99.90
14236;DHT22;7202;50.718;7.072;2023-03-23T09:11:08;14.60;99.90
14236;DHT22;7202;50.718;7.072;2023-03-23T09:13:36;14.60;99.90
14236;DHT22;7202;50.718;7.072;2023-03-23T09:16:05;14.70;99.90
14236;DHT22;7202;50.718;7.072;2023-03-23T09:18:35;14.70;99.90
14236;DHT22;7202;50.718;7.072;2023-03-23T09:21:06;14.70;99.90
14236;DHT22;7202;50.718;7.072;2023-03-23T09:23:34;14.70;99.90
14236;DHT22;7202;50.718;7.072;2023-03-23T09:26:03;14.80;99.90
14236;DHT22;7202;50.718;7.072;2023-03-23T09:28:30;14.80;99.90
14236;DHT22;7202;50.718;7.072;2023-03-23T09:30:58;14.80;99.90
14236;DHT22;7202;50.718;7.072;2023-03-23T09:33:26;14.90;99.90
14236;DHT22;7202;50.718;7.072;2023-03-23T09:35:56;14.90;99.90
14236;DHT22;7202;50.718;7.072;2023-03-23T09:38:24;14.90;99.90
14236;DHT22;7202;50.718;7.072;2023-03-23T09:40:55;15.00;99.90
14236;DHT22;7202;50.718;7.072;2023-03-23T09:43:39;15.00;99.90
14236;DHT22;7202;50.718;7.072;2023-03-23T09:46:21;15.00;99.90
14236;DHT22;7202;50.718;7.072;2023-03-23T09:48:53;15.00;99.90
14236;DHT22;7202;50.718;7.072;2023-03-23T09:51:31;15.10;99.90
14236;DHT22;7202;50.718;7.072;2023-03-23T09:54:04;15.20;99.90
14236;DHT22;7202;50.718;7.072;2023-03-23T09:56:34;15.30;99.90
14236;DHT22;7202;50.718;7.072;2023-03-23T09:59:09;15.30;99.90
14236;DHT22;7202;50.718;7.072;2023-03-23T10:01:41;15.30;99.90
14236;DHT22;7202;50.718;7.072;2023-03-23T10:04:15;15.30;99.90
14236;DHT22;7202;50.718;7.072;2023-03-23T10:06:47;15.40;99.90
14236;DHT22;7202;50.718;7.072;2023-03-23T10:09:17;15.40;99.90
14236;DHT22;7202;50.718;7.072;2023-03-23T10:11:56;15.40;99.90
14236;DHT22;7202;50.718;7.072;2023-03-23T10:14:43;15.40;99.90
14236;DHT22;7202;50.718;7.072;2023-03-23T10:17:14;15.30;99.90
14236;DHT22;7202;50.718;7.072;2023-03-23T10:19:48;15.40;99.90
14236;DHT22;7202;50.718;7.072;2023-03-23T10:22:31;15.30;99.90
14236;DHT22;7202;50.718;7.072;2023-03-23T10:25:08;15.40;99.90
14236;DHT22;7202;50.718;7.072;2023-03-23T10:27:47;15.40;99.90
14236;DHT22;7202;50.718;7.072;2023-03-23T10:30:21;15.50;99.90
14236;DHT22;7202;50.718;7.072;2023-03-23T10:32:52;15.50;99.90
14236;DHT22;7202;50.718;7.072;2023-03-23T10:35:25;15.60;99.90
14236;DHT22;7202;50.718;7.072;2023-03-23T10:37:59;15.60;99.90
14236;DHT22;7202;50.718;7.072;2023-03-23T10:40:29;15.60;99.90
14236;DHT22;7202;50.718;7.072;2023-03-23T10:42:57;15.60;99.90
14236;DHT22;7202;50.718;7.072;2023-03-23T10:45:26;15.60;99.90
14236;DHT22;7202;50.718;7.072;2023-03-23T10:47:59;15.60;99.90
14236;DHT22;7202;50.718;7.072;2023-03-23T10:50:35;15.50;99.90
14236;DHT22;7202;50.718;7.072;2023-03-23T10:53:14;15.40;99.90
14236;DHT22;7202;50.718;7.072;2023-03-23T10:55:43;15.40;99.90
14236;DHT22;7202;50.718;7.072;2023-03-23T10:58:12;15.40;99.90
14236;DHT22;7202;50.718;7.072;2023-03-23T11:00:42;15.30;99.90
14236;DHT22;7202;50.718;7.072;2023-03-23T11:03:25;15.30;99.90
14236;DHT22;7202;50.718;7.072;2023-03-23T11:05:57;15.30;99.90
14236;DHT22;7202;50.718;7.072;2023-03-23T11:08:29;15.30;99.90
14236;DHT22;7202;50.718;7.072;2023-03-23T11:11:08;15.30;99.90
14236;DHT22;7202;50.718;7.072;2023-03-23T11:13:39;15.40;99.90
14236;DHT22;7202;50.718;7.072;2023-03-23T11:16:09;15.50;99.90
14236;DHT22;7202;50.718;7.072;2023-03-23T11:18:39;15.60;99.90
14236;DHT22;7202;50.718;7.072;2023-03-23T11:21:11;15.70;99.90
14236;DHT22;7202;50.718;7.072;2023-03-23T11:23:42;15.70;99.90
14236;DHT22;7202;50.718;7.072;2023-03-23T11:26:14;15.80;99.90
14236;DHT22;7202;50.718;7.072;2023-03-23T11:28:45;15.80;99.90
14236;DHT22;7202;50.718;7.072;2023-03-23T11:31:13;15.80;99.90
14236;DHT22;7202;50.718;7.072;2023-03-23T11:33:51;15.80;99.90
14236;DHT22;7202;50.718;7.072;2023-03-23T11:36:19;15.80;99.90
14236;DHT22;7202;50.718;7.072;2023-03-23T11:38:54;15.90;99.90
14236;DHT22;7202;50.718;7.072;2023-03-23T11:41:32;15.90;99.90
14236;DHT22;7202;50.718;7.072;2023-03-23T11:44:10;16.00;99.90
14236;DHT22;7202;50.718;7.072;2023-03-23T11:46:45;16.10;99.90
14236;DHT22;7202;50.718;7.072;2023-03-23T11:49:22;16.20;99.90
14236;DHT22;7202;50.718;7.072;2023-03-23T11:51:56;16.20;99.90
14236;DHT22;7202;50.718;7.072;2023-03-23T11:54:31;16.30;99.90
14236;DHT22;7202;50.718;7.072;2023-03-23T11:56:59;16.40;99.90
14236;DHT22;7202;50.718;7.072;2023-03-23T11:59:28;16.30;99.90
14236;DHT22;7202;50.718;7.072;2023-03-23T12:02:05;16.30;99.90
14236;DHT22;7202;50.718;7.072;2023-03-23T12:05:04;16.30;99.90
14236;DHT22;7202;50.718;7.072;2023-03-23T12:07:46;16.30;99.90
14236;DHT22;7202;50.718;7.072;2023-03-23T12:10:26;16.30;99.90
14236;DHT22;7202;50.718;7.072;2023-03-23T12:13:15;16.40;99.90
14236;DHT22;7202;50.718;7.072;2023-03-23T12:15:57;16.40;99.90
14236;DHT22;7202;50.718;7.072;2023-03-23T12:18:32;16.40;99.90
14236;DHT22;7202;50.718;7.072;2023-03-23T12:21:08;16.50;99.90
14236;DHT22;7202;50.718;7.072;2023-03-23T12:23:44;16.50;99.90
14236;DHT22;7202;50.718;7.072;2023-03-23T12:26:19;16.50;99.90
14236;DHT22;7202;50.718;7.072;2023-03-23T12:29:03;16.60;99.90
14236;DHT22;7202;50.718;7.072;2023-03-23T12:31:43;16.60;99.90
14236;DHT22;7202;50.718;7.072;2023-03-23T12:34:26;16.60;99.90
14236;DHT22;7202;50.718;7.072;2023-03-23T12:37:11;16.60;99.90
14236;DHT22;7202;50.718;7.072;2023-03-23T12:40:01;16.60;99.90
14236;DHT22;7202;50.718;7.072;2023-03-23T12:42:40;16.70;99.90
14236;DHT22;7202;50.718;7.072;2023-03-23T12:45:18;16.60;99.90
14236;DHT22;7202;50.718;7.072;2023-03-23T12:47:52;16.60;99.90
14236;DHT22;7202;50.718;7.072;2023-03-23T12:50:26;16.70;99.90
14236;DHT22;7202;50.718;7.072;2023-03-23T12:52:59;16.60;99.90
14236;DHT22;7202;50.718;7.072;2023-03-23T12:55:34;16.60;99.90
14236;DHT22;7202;50.718;7.072;2023-03-23T12:58:07;16.50;99.90
14236;DHT22;7202;50.718;7.072;2023-03-23T13:00:52;16.50;99.90
14236;DHT22;7202;50.718;7.072;2023-03-23T13:03:26;16.40;99.90
14236;DHT22;7202;50.718;7.072;2023-03-23T13:06:00;16.40;99.90
14236;DHT22;7202;50.718;7.072;2023-03-23T13:08:35;16.40;99.90
14236;DHT22;7202;50.718;7.072;2023-03-23T13:11:08;16.30;99.90
14236;DHT22;7202;50.718;7.072;2023-03-23T13:13:45;16.30;99.90
14236;DHT22;7202;50.718;7.072;2023-03-23T13:16:21;16.30;99.90
14236;DHT22;7202;50.718;7.072;2023-03-23T13:19:02;16.30;99.90
14236;DHT22;7202;50.718;7.072;2023-03-23T13:21:34;16.40;99.90
14236;DHT22;7202;50.718;7.072;2023-03-23T13:24:05;16.30;99.90
14236;DHT22;7202;50.718;7.072;2023-03-23T13:26:38;16.40;99.90
14236;DHT22;7202;50.718;7.072;2023-03-23T13:29:12;16.50;99.90
14236;DHT22;7202;50.718;7.072;2023-03-23T13:31:42;16.50;99.90
14236;DHT22;7202;50.718;7.072;2023-03-23T13:34:16;16.60;99.90
14236;DHT22;7202;50.718;7.072;2023-03-23T13:36:52;16.70;99.90
14236;DHT22;7202;50.718;7.072;2023-03-23T13:39:22;16.80;99.90
14236;DHT22;7202;50.718;7.072;2023-03-23T13:42:05;16.80;99.90
14236;DHT22;7202;50.718;7.072;2023-03-23T13:44:43;16.90;99.90
14236;DHT22;7202;50.718;7.072;2023-03-23T13:47:26;17.00;99.90
14236;DHT22;7202;50.718;7.072;2023-03-23T13:49:55;17.00;99.90
14236;DHT22;7202;50.718;7.072;2023-03-23T13:52:25;17.10;99.90
14236;DHT22;7202;50.718;7.072;2023-03-23T13:55:20;17.10;99.90
14236;DHT22;7202;50.718;7.072;2023-03-23T13:57:50;17.10;99.90
14236;DHT22;7202;50.718;7.072;2023-03-23T14:00:36;17.20;99.90
14236;DHT22;7202;50.718;7.072;2023-03-23T14:03:14;17.20;99.90
14236;DHT22;7202;50.718;7.072;2023-03-23T14:05:43;17.20;99.90
14236;DHT22;7202;50.718;7.072;2023-03-23T14:08:14;17.20;99.90
14236;DHT22;7202;50.718;7.072;2023-03-23T14:10:51;17.20;99.90
14236;DHT22;7202;50.718;7.072;2023-03-23T14:13:23;17.20;99.90
14236;DHT22;7202;50.718;7.072;2023-03-23T14:15:58;17.20;99.90
14236;DHT22;7202;50.718;7.072;2023-03-23T14:18:30;17.20;99.90
14236;DHT22;7202;50.718;7.072;2023-03-23T14:20:59;17.20;99.90
14236;DHT22;7202;50.718;7.072;2023-03-23T14:23:27;17.20;99.90
14236;DHT22;7202;50.718;7.072;2023-03-23T14:25:56;17.20;99.90
14236;DHT22;7202;50.718;7.072;2023-03-23T14:28:31;17.20;99.90
14236;DHT22;7202;50.718;7.072;2023-03-23T14:31:01;17.00;99.90
14236;DHT22;7202;50.718;7.072;2023-03-23T14:33:29;17.00;99.90
14236;DHT22;7202;50.718;7.072;2023-03-23T14:35:58;16.90;99.90
14236;DHT22;7202;50.718;7.072;2023-03-23T14:38:27;16.90;99.90
14236;DHT22;7202;50.718;7.072;2023-03-23T14:41:02;16.80;99.90
14236;DHT22;7202;50.718;7.072;2023-03-23T14:43:31;16.70;99.90
14236;DHT22;7202;50.718;7.072;2023-03-23T14:46:05;16.70;99.90
14236;DHT22;7202;50.718;7.072;2023-03-23T14:48:34;16.60;99.90
14236;DHT22;7202;50.718;7.072;2023-03-23T14:51:04;16.60;99.90
14236;DHT22;7202;50.718;7.072;2023-03-23T14:53:36;16.60;99.90
14236;DHT22;7202;50.718;7.072;2023-03-23T14:56:10;16.50;99.90
14236;DHT22;7202;50.718;7.072;2023-03-23T14:58:42;16.60;99.90
14236;DHT22;7202;50.718;7.072;2023-03-23T15:01:14;16.60;99.90
14236;DHT22;7202;50.718;7.072;2023-03-23T15:03:51;16.70;99.90
14236;DHT22;7202;50.718;7.072;2023-03-23T15:06:21;16.70;99.90
14236;DHT22;7202;50.718;7.072;2023-03-23T15:08:52;16.90;99.90
14236;DHT22;7202;50.718;7.072;2023-03-23T15:11:23;16.90;99.90
14236;DHT22;7202;50.718;7.072;2023-03-23T15:13:54;17.00;99.90
14236;DHT22;7202;50.718;7.072;2023-03-23T15:16:26;17.00;99.90
14236;DHT22;7202;50.718;7.072;2023-03-23T15:18:56;17.00;99.90
14236;DHT22;7202;50.718;7.072;2023-03-23T15:21:28;17.00;99.90
14236;DHT22;7202;50.718;7.072;2023-03-23T15:23:56;16.90;99.90
14236;DHT22;7202;50.718;7.072;2023-03-23T15:26:28;16.90;99.90
14236;DHT22;7202;50.718;7.072;2023-03-23T15:29:12;16.90;99.90
14236;DHT22;7202;50.718;7.072;2023-03-23T15:31:43;16.80;99.90
14236;DHT22;7202;50.718;7.072;2023-03-23T15:34:16;16.80;99.90
14236;DHT22;7202;50.718;7.072;2023-03-23T15:36:45;16.80;99.90
14236;DHT22;7202;50.718;7.072;2023-03-23T15:39:13;16.70;99.90
14236;DHT22;7202;50.718;7.072;2023-03-23T15:41:47;16.70;99.90
14236;DHT22;7202;50.718;7.072;2023-03-23T15:44:26;16.70;99.90
14236;DHT22;7202;50.718;7.072;2023-03-23T15:49:46;16.70;99.90
14236;DHT22;7202;50.718;7.072;2023-03-23T15:52:15;16.60;99.90
14236;DHT22;7202;50.718;7.072;2023-03-23T15:54:47;16.50;99.90
14236;DHT22;7202;50.718;7.072;2023-03-23T15:57:14;16.50;99.90
14236;DHT22;7202;50.718;7.072;2023-03-23T15:59:42;16.60;99.90
14236;DHT22;7202;50.718;7.072;2023-03-23T16:02:18;16.50;99.90
14236;DHT22;7202;50.718;7.072;2023-03-23T16:04:47;16.50;99.90
14236;DHT22;7202;50.718;7.072;2023-03-23T16:07:21;16.60;99.90
14236;DHT22;7202;50.718;7.072;2023-03-23T16:09:50;16.50;99.90
14236;DHT22;7202;50.718;7.072;2023-03-23T16:12:19;16.50;99.90
14236;DHT22;7202;50.718;7.072;2023-03-23T16:14:47;16.50;99.90
14236;DHT22;7202;50.718;7.072;2023-03-23T16:17:19;16.40;99.90
14236;DHT22;7202;50.718;7.072;2023-03-23T16:19:48;16.40;99.90
14236;DHT22;7202;50.718;7.072;2023-03-23T16:22:16;16.40;99.90
14236;DHT22;7202;50.718;7.072;2023-03-23T16:24:45;16.30;99.90
14236;DHT22;7202;50.718;7.072;2023-03-23T16:27:13;16.30;99.90
14236;DHT22;7202;50.718;7.072;2023-03-23T16:29:42;16.20;99.90
14236;DHT22;7202;50.718;7.072;2023-03-23T16:32:31;16.20;99.90
14236;DHT22;7202;50.718;7.072;2023-03-23T16:34:59;16.20;99.90